This is the latest recevied weather packets stored in our database for station/object F4FTJ-13. If no packets are shown the sender has not sent any weather packets the latest 10 day(s).
| Time | Temp. | Humidity | Pressure | Rain* | Wind** | Luminosity | Snow |
|---|---|---|---|---|---|---|---|
| 1777469407 | 23.89° C | 51% | 1012.4 hPa | 0 mm | - | - | - |
| 1777469108 | 24.44° C | 50% | 1012.4 hPa | 0 mm | - | - | - |
| 1777468808 | 24.44° C | 50% | 1012.2 hPa | 0 mm | - | - | - |
| 1777468208 | 24.44° C | 52% | 1012.1 hPa | 0 mm | - | - | - |
| 1777467008 | 23.33° C | 53% | 1012.2 hPa | 0 mm | - | - | - |
| 1777465807 | 23.89° C | 53% | 1012.5 hPa | 0 mm | - | - | - |
| 1777464908 | 24.44° C | 52% | 1012.6 hPa | 0 mm | - | - | - |
| 1777464608 | 23.89° C | 53% | 1012.5 hPa | 0 mm | - | - | - |
| 1777464307 | 23.89° C | 54% | 1012.5 hPa | 0 mm | - | - | - |
| 1777464008 | 24.44° C | 52% | 1012.6 hPa | 0 mm | - | - | - |
| 1777463707 | 24.44° C | 55% | 1012.8 hPa | 0 mm | - | - | - |
| 1777462808 | 23.33° C | 54% | 1012.4 hPa | 0 mm | - | - | - |
| 1777461007 | 23.33° C | 56% | 1012.9 hPa | 0 mm | - | - | - |
| 1777458608 | 22.78° C | 59% | 1013.3 hPa | 0 mm | - | - | - |
| 1777457107 | 22.22° C | 61% | 1013.5 hPa | 0 mm | - | - | - |
| 1777452908 | 20° C | 72% | 1013.5 hPa | 0 mm | - | - | - |
| 1777452007 | 18.89° C | 73% | 1013.4 hPa | 0 mm | - | - | - |
| 1777449907 | 17.78° C | 76% | 1013.8 hPa | 0 mm | - | - | - |
| 1777446008 | 13.33° C | 87% | 1013.6 hPa | 0 mm | - | - | - |
| 1777445708 | 13.33° C | 87% | 1013.7 hPa | 0 mm | - | - | - |
| 1777444508 | 12.22° C | 88% | 1013.7 hPa | 0 mm | - | - | - |
| 1777443907 | 12.22° C | 88% | 1013.6 hPa | 0 mm | - | - | - |
| 1777443308 | 11.67° C | 89% | 1013.5 hPa | 0 mm | - | - | - |
| 1777440608 | 10.56° C | 91% | 1013.1 hPa | 0 mm | - | - | - |
| 1777440307 | 10.56° C | 91% | 1013 hPa | 0 mm | - | - | - |
* Rain latest hour (hover to see other rain measurements)
** Current wind speed in m/s (hover to see current wind gust speed)